< < Back
Terminal Aerodrome Forecast


Current Version              Previous Versions:   1  2  3  4  5  6  7  8  9  

Terminal Aerodrome Forecast

804
FTUS42 KCHS 201300 AAA
TAFCHS
TAF AMD
KCHS 201340Z 2014/2112 02013G21KT P6SM VCSH OVC015
     FM210000 36011KT P6SM BKN020=



Latest METAR

712
SAUS80 KWBC 201800 RRA
MTRCHS
METAR KCHS 201756Z 36011G18KT 10SM OVC030 19/10 A3010 RMK AO2 SLP193
T01890100 10200 20122 55000


USA.gov is the U.S. government's official web portal to all federal, state and local government web resources and services.